sensor_id;sensor_type;location;lat;lon;timestamp;pressure;altitude;pressure_sealevel;temperature;humidity
22580;BME280;11456;47.030;15.396;2023-04-27T00:01:50;97715.88;;;7.95;74.08
22580;BME280;11456;47.030;15.396;2023-04-27T00:04:17;97716.50;;;7.98;73.28
22580;BME280;11456;47.030;15.396;2023-04-27T00:06:44;97709.53;;;7.86;74.07
22580;BME280;11456;47.030;15.396;2023-04-27T00:09:11;97709.03;;;7.81;73.99
22580;BME280;11456;47.030;15.396;2023-04-27T00:11:38;97711.72;;;7.81;73.45
22580;BME280;11456;47.030;15.396;2023-04-27T00:14:04;97707.44;;;7.69;74.73
22580;BME280;11456;47.030;15.396;2023-04-27T00:16:31;97710.31;;;7.77;73.68
22580;BME280;11456;47.030;15.396;2023-04-27T00:18:57;97710.31;;;7.77;73.20
22580;BME280;11456;47.030;15.396;2023-04-27T00:21:24;97709.22;;;7.80;72.91
22580;BME280;11456;47.030;15.396;2023-04-27T00:23:50;97709.59;;;7.75;73.21
22580;BME280;11456;47.030;15.396;2023-04-27T00:26:17;97709.13;;;7.70;73.53
22580;BME280;11456;47.030;15.396;2023-04-27T00:28:47;97707.09;;;7.53;74.57
22580;BME280;11456;47.030;15.396;2023-04-27T00:31:13;97700.22;;;7.60;74.67
22580;BME280;11456;47.030;15.396;2023-04-27T00:33:40;97707.13;;;7.62;74.72
22580;BME280;11456;47.030;15.396;2023-04-27T00:36:07;97697.84;;;7.67;74.37
22580;BME280;11456;47.030;15.396;2023-04-27T00:38:33;97703.53;;;7.73;73.76
22580;BME280;11456;47.030;15.396;2023-04-27T00:41:01;97702.06;;;7.69;73.50
22580;BME280;11456;47.030;15.396;2023-04-27T00:43:27;97703.59;;;7.62;73.33
22580;BME280;11456;47.030;15.396;2023-04-27T00:45:54;97699.22;;;7.61;73.42
22580;BME280;11456;47.030;15.396;2023-04-27T00:48:21;97702.69;;;7.52;74.40
22580;BME280;11456;47.030;15.396;2023-04-27T00:50:49;97707.09;;;7.53;74.65
22580;BME280;11456;47.030;15.396;2023-04-27T00:53:16;97712.97;;;7.47;74.93
22580;BME280;11456;47.030;15.396;2023-04-27T00:55:43;97710.50;;;7.55;74.83
22580;BME280;11456;47.030;15.396;2023-04-27T00:58:09;97709.31;;;7.48;75.30
22580;BME280;11456;47.030;15.396;2023-04-27T01:00:37;97709.31;;;7.48;75.56
22580;BME280;11456;47.030;15.396;2023-04-27T01:03:06;97707.72;;;7.66;75.56
22580;BME280;11456;47.030;15.396;2023-04-27T01:05:33;97714.78;;;7.67;75.03
22580;BME280;11456;47.030;15.396;2023-04-27T01:08:00;97716.81;;;7.33;76.47
22580;BME280;11456;47.030;15.396;2023-04-27T01:10:26;97709.72;;;7.22;77.82
22580;BME280;11456;47.030;15.396;2023-04-27T01:12:53;97716.50;;;7.27;78.33
22580;BME280;11456;47.030;15.396;2023-04-27T01:15:20;97716.88;;;7.43;78.00
22580;BME280;11456;47.030;15.396;2023-04-27T01:17:47;97711.25;;;7.46;77.12
22580;BME280;11456;47.030;15.396;2023-04-27T01:20:14;97711.72;;;7.51;76.67
22580;BME280;11456;47.030;15.396;2023-04-27T01:22:41;97716.28;;;7.60;76.74
22580;BME280;11456;47.030;15.396;2023-04-27T01:25:08;97713.00;;;7.56;76.32
22580;BME280;11456;47.030;15.396;2023-04-27T01:27:35;97712.88;;;7.37;77.10
22580;BME280;11456;47.030;15.396;2023-04-27T01:30:02;97717.41;;;7.37;77.20
22580;BME280;11456;47.030;15.396;2023-04-27T01:32:29;97712.38;;;7.43;76.51
22580;BME280;11456;47.030;15.396;2023-04-27T01:34:55;97713.22;;;7.44;75.71
22580;BME280;11456;47.030;15.396;2023-04-27T01:37:25;97716.19;;;7.41;75.34
22580;BME280;11456;47.030;15.396;2023-04-27T01:39:51;97717.59;;;7.24;75.88
22580;BME280;11456;47.030;15.396;2023-04-27T01:42:18;97729.63;;;7.09;76.95
22580;BME280;11456;47.030;15.396;2023-04-27T01:44:44;97725.88;;;7.00;77.77
22580;BME280;11456;47.030;15.396;2023-04-27T01:47:11;97734.19;;;7.18;77.24
22580;BME280;11456;47.030;15.396;2023-04-27T01:49:38;97737.25;;;7.13;77.19
22580;BME280;11456;47.030;15.396;2023-04-27T01:52:05;97731.78;;;7.15;77.22
22580;BME280;11456;47.030;15.396;2023-04-27T01:54:32;97733.72;;;7.13;77.11
22580;BME280;11456;47.030;15.396;2023-04-27T01:56:58;97732.41;;;7.07;77.38
22580;BME280;11456;47.030;15.396;2023-04-27T01:59:25;97736.06;;;7.06;77.66
22580;BME280;11456;47.030;15.396;2023-04-27T02:01:51;97730.94;;;7.14;77.59
22580;BME280;11456;47.030;15.396;2023-04-27T02:04:18;97738.97;;;7.14;77.59
22580;BME280;11456;47.030;15.396;2023-04-27T02:06:45;97740.56;;;7.06;78.37
22580;BME280;11456;47.030;15.396;2023-04-27T02:09:12;97732.94;;;7.01;78.61
22580;BME280;11456;47.030;15.396;2023-04-27T02:11:39;97738.22;;;7.12;77.90
22580;BME280;11456;47.030;15.396;2023-04-27T02:14:05;97740.66;;;7.15;78.47
22580;BME280;11456;47.030;15.396;2023-04-27T02:16:32;97737.19;;;7.24;77.81
22580;BME280;11456;47.030;15.396;2023-04-27T02:18:59;97734.41;;;7.26;77.13
22580;BME280;11456;47.030;15.396;2023-04-27T02:21:27;97745.50;;;7.21;77.75
22580;BME280;11456;47.030;15.396;2023-04-27T02:23:55;97734.28;;;7.28;76.76
22580;BME280;11456;47.030;15.396;2023-04-27T02:26:22;97740.28;;;7.41;77.03
22580;BME280;11456;47.030;15.396;2023-04-27T02:28:55;97740.81;;;7.35;77.17
22580;BME280;11456;47.030;15.396;2023-04-27T02:31:22;97737.41;;;7.33;77.27
22580;BME280;11456;47.030;15.396;2023-04-27T02:33:49;97737.50;;;7.42;77.37
22580;BME280;11456;47.030;15.396;2023-04-27T02:36:16;97730.63;;;7.29;77.39
22580;BME280;11456;47.030;15.396;2023-04-27T02:38:42;97737.72;;;7.39;77.44
22580;BME280;11456;47.030;15.396;2023-04-27T02:41:09;97741.19;;;7.51;77.20
22580;BME280;11456;47.030;15.396;2023-04-27T02:43:35;97741.47;;;7.48;76.98
22580;BME280;11456;47.030;15.396;2023-04-27T02:46:04;97738.97;;;7.56;76.45
22580;BME280;11456;47.030;15.396;2023-04-27T02:48:31;97745.44;;;7.53;76.67
22580;BME280;11456;47.030;15.396;2023-04-27T02:50:57;97737.16;;;7.36;78.45
22580;BME280;11456;47.030;15.396;2023-04-27T02:53:24;97740.38;;;7.18;79.13
22580;BME280;11456;47.030;15.396;2023-04-27T02:55:50;97743.91;;;7.19;79.15
22580;BME280;11456;47.030;15.396;2023-04-27T02:58:17;97740.16;;;7.21;79.21
22580;BME280;11456;47.030;15.396;2023-04-27T03:00:43;97748.13;;;7.33;78.38
22580;BME280;11456;47.030;15.396;2023-04-27T03:03:11;97744.25;;;7.25;79.19
22580;BME280;11456;47.030;15.396;2023-04-27T03:05:38;97742.84;;;7.42;78.44
22580;BME280;11456;47.030;15.396;2023-04-27T03:08:04;97745.44;;;7.33;78.21
22580;BME280;11456;47.030;15.396;2023-04-27T03:10:31;97740.53;;;7.38;78.31
22580;BME280;11456;47.030;15.396;2023-04-27T03:12:57;97743.94;;;7.40;77.66
22580;BME280;11456;47.030;15.396;2023-04-27T03:15:23;97750.59;;;7.24;80.17
22580;BME280;11456;47.030;15.396;2023-04-27T03:17:50;97754.50;;;7.20;80.20
22580;BME280;11456;47.030;15.396;2023-04-27T03:20:17;97758.91;;;7.21;80.92
22580;BME280;11456;47.030;15.396;2023-04-27T03:22:44;97757.41;;;7.29;79.80
22580;BME280;11456;47.030;15.396;2023-04-27T03:25:11;97754.00;;;7.27;79.60
22580;BME280;11456;47.030;15.396;2023-04-27T03:27:37;97764.59;;;7.49;78.90
22580;BME280;11456;47.030;15.396;2023-04-27T03:30:04;97757.25;;;7.51;78.58
22580;BME280;11456;47.030;15.396;2023-04-27T03:32:31;97754.38;;;7.43;78.95
22580;BME280;11456;47.030;15.396;2023-04-27T03:34:59;97762.91;;;7.48;78.52
22580;BME280;11456;47.030;15.396;2023-04-27T03:37:26;97760.91;;;7.50;78.19
22580;BME280;11456;47.030;15.396;2023-04-27T03:39:55;97764.66;;;7.38;79.38
22580;BME280;11456;47.030;15.396;2023-04-27T03:42:22;97756.09;;;7.44;78.71
22580;BME280;11456;47.030;15.396;2023-04-27T03:44:48;97758.59;;;7.36;78.74
22580;BME280;11456;47.030;15.396;2023-04-27T03:47:15;97771.63;;;7.08;80.92
22580;BME280;11456;47.030;15.396;2023-04-27T03:49:41;97774.59;;;6.94;81.60
22580;BME280;11456;47.030;15.396;2023-04-27T03:52:08;97770.66;;;6.98;82.18
22580;BME280;11456;47.030;15.396;2023-04-27T03:54:35;97764.56;;;7.07;81.16
22580;BME280;11456;47.030;15.396;2023-04-27T03:57:01;97761.88;;;7.07;81.63
22580;BME280;11456;47.030;15.396;2023-04-27T03:59:29;97766.25;;;7.08;80.96
22580;BME280;11456;47.030;15.396;2023-04-27T04:01:56;97762.09;;;7.15;80.58
22580;BME280;11456;47.030;15.396;2023-04-27T04:04:26;97764.94;;;7.23;80.42
22580;BME280;11456;47.030;15.396;2023-04-27T04:06:53;97771.63;;;7.08;80.87
22580;BME280;11456;47.030;15.396;2023-04-27T04:09:21;97770.81;;;7.29;80.76
22580;BME280;11456;47.030;15.396;2023-04-27T04:11:50;97777.78;;;7.41;79.59
22580;BME280;11456;47.030;15.396;2023-04-27T04:14:17;97771.63;;;7.50;79.57
22580;BME280;11456;47.030;15.396;2023-04-27T04:16:44;97771.50;;;7.31;80.37
22580;BME280;11456;47.030;15.396;2023-04-27T04:19:11;97772.75;;;7.27;80.23
22580;BME280;11456;47.030;15.396;2023-04-27T04:21:38;97776.91;;;7.19;80.89
22580;BME280;11456;47.030;15.396;2023-04-27T04:24:05;97774.66;;;7.36;80.78
22580;BME280;11456;47.030;15.396;2023-04-27T04:26:32;97774.81;;;7.55;79.16
22580;BME280;11456;47.030;15.396;2023-04-27T04:28:59;97778.59;;;7.73;78.53
22580;BME280;11456;47.030;15.396;2023-04-27T04:31:26;97775.78;;;7.54;78.85
22580;BME280;11456;47.030;15.396;2023-04-27T04:33:53;97772.66;;;7.49;78.49
22580;BME280;11456;47.030;15.396;2023-04-27T04:36:20;97776.16;;;7.49;77.94
22580;BME280;11456;47.030;15.396;2023-04-27T04:38:48;97782.75;;;7.45;79.67
22580;BME280;11456;47.030;15.396;2023-04-27T04:41:15;97784.13;;;7.40;79.77
22580;BME280;11456;47.030;15.396;2023-04-27T04:43:42;97781.38;;;7.51;79.31
22580;BME280;11456;47.030;15.396;2023-04-27T04:46:08;97788.91;;;7.57;79.86
22580;BME280;11456;47.030;15.396;2023-04-27T04:48:35;97781.31;;;7.62;79.69
22580;BME280;11456;47.030;15.396;2023-04-27T04:51:03;97788.38;;;7.63;79.53
22580;BME280;11456;47.030;15.396;2023-04-27T04:53:30;97787.69;;;7.61;79.65
22580;BME280;11456;47.030;15.396;2023-04-27T04:56:06;97790.94;;;7.64;79.73
22580;BME280;11456;47.030;15.396;2023-04-27T04:58:33;97795.97;;;7.58;78.72
22580;BME280;11456;47.030;15.396;2023-04-27T05:00:59;97787.31;;;7.75;77.43
22580;BME280;11456;47.030;15.396;2023-04-27T05:03:27;97793.81;;;7.93;77.31
22580;BME280;11456;47.030;15.396;2023-04-27T05:05:53;97791.34;;;8.32;76.79
22580;BME280;11456;47.030;15.396;2023-04-27T05:08:20;97792.47;;;8.39;77.42
22580;BME280;11456;47.030;15.396;2023-04-27T05:10:50;97802.78;;;8.34;77.23
22580;BME280;11456;47.030;15.396;2023-04-27T05:13:17;97793.03;;;8.33;77.92
22580;BME280;11456;47.030;15.396;2023-04-27T05:15:43;97802.16;;;8.51;76.95
22580;BME280;11456;47.030;15.396;2023-04-27T05:18:10;97802.91;;;8.63;77.21
22580;BME280;11456;47.030;15.396;2023-04-27T05:20:36;97812.72;;;8.83;76.92
22580;BME280;11456;47.030;15.396;2023-04-27T05:23:03;97812.88;;;9.01;75.75
22580;BME280;11456;47.030;15.396;2023-04-27T05:25:30;97810.50;;;9.17;74.98
22580;BME280;11456;47.030;15.396;2023-04-27T05:27:57;97812.00;;;8.91;76.01
22580;BME280;11456;47.030;15.396;2023-04-27T05:30:23;97807.13;;;9.15;74.94
22580;BME280;11456;47.030;15.396;2023-04-27T05:32:50;97805.97;;;9.08;74.60
22580;BME280;11456;47.030;15.396;2023-04-27T05:35:17;97811.06;;;9.01;74.10
22580;BME280;11456;47.030;15.396;2023-04-27T05:37:43;97811.38;;;9.27;72.32
22580;BME280;11456;47.030;15.396;2023-04-27T05:40:10;97819.56;;;9.54;71.98
22580;BME280;11456;47.030;15.396;2023-04-27T05:42:36;97817.00;;;9.62;71.70
22580;BME280;11456;47.030;15.396;2023-04-27T05:45:03;97821.25;;;9.75;70.85
22580;BME280;11456;47.030;15.396;2023-04-27T05:47:29;97815.31;;;9.71;72.89
22580;BME280;11456;47.030;15.396;2023-04-27T05:49:56;97813.88;;;9.86;71.18
22580;BME280;11456;47.030;15.396;2023-04-27T05:52:22;97817.59;;;9.56;70.93
22580;BME280;11456;47.030;15.396;2023-04-27T05:54:54;97816.16;;;9.72;70.22
22580;BME280;11456;47.030;15.396;2023-04-27T05:57:21;97818.97;;;9.60;72.81
22580;BME280;11456;47.030;15.396;2023-04-27T05:59:48;97818.53;;;9.94;71.85
22580;BME280;11456;47.030;15.396;2023-04-27T06:02:14;97829.69;;;10.28;69.83
22580;BME280;11456;47.030;15.396;2023-04-27T06:04:42;97820.22;;;10.61;67.44
22580;BME280;11456;47.030;15.396;2023-04-27T06:07:12;97828.41;;;10.69;65.42
22580;BME280;11456;47.030;15.396;2023-04-27T06:09:39;97822.09;;;11.05;63.70
22580;BME280;11456;47.030;15.396;2023-04-27T06:12:06;97824.53;;;11.44;62.62
22580;BME280;11456;47.030;15.396;2023-04-27T06:14:33;97830.09;;;11.15;62.10
22580;BME280;11456;47.030;15.396;2023-04-27T06:17:01;97829.06;;;11.43;60.37
22580;BME280;11456;47.030;15.396;2023-04-27T06:19:27;97828.66;;;11.20;60.58
22580;BME280;11456;47.030;15.396;2023-04-27T06:21:54;97839.47;;;10.66;58.57
22580;BME280;11456;47.030;15.396;2023-04-27T06:24:21;97845.25;;;10.98;61.14
22580;BME280;11456;47.030;15.396;2023-04-27T06:26:48;97837.56;;;11.48;58.52
22580;BME280;11456;47.030;15.396;2023-04-27T06:29:14;97842.78;;;11.68;59.90
22580;BME280;11456;47.030;15.396;2023-04-27T06:31:41;97837.16;;;12.14;57.41
22580;BME280;11456;47.030;15.396;2023-04-27T06:34:07;97840.72;;;12.23;56.57
22580;BME280;11456;47.030;15.396;2023-04-27T06:36:34;97838.22;;;12.03;51.44
22580;BME280;11456;47.030;15.396;2023-04-27T06:39:01;97837.41;;;11.85;52.70
22580;BME280;11456;47.030;15.396;2023-04-27T06:41:27;97843.84;;;11.21;53.84
22580;BME280;11456;47.030;15.396;2023-04-27T06:43:54;97845.41;;;11.59;51.92
22580;BME280;11456;47.030;15.396;2023-04-27T06:46:24;97838.00;;;12.15;53.12
22580;BME280;11456;47.030;15.396;2023-04-27T06:48:50;97841.00;;;12.37;53.72
22580;BME280;11456;47.030;15.396;2023-04-27T06:51:17;97838.94;;;12.57;52.62
22580;BME280;11456;47.030;15.396;2023-04-27T06:53:44;97842.06;;;12.44;48.80
22580;BME280;11456;47.030;15.396;2023-04-27T06:56:11;97848.97;;;12.39;47.45
22580;BME280;11456;47.030;15.396;2023-04-27T06:58:37;97843.09;;;12.77;46.88
22580;BME280;11456;47.030;15.396;2023-04-27T07:01:04;97849.34;;;12.78;44.90
22580;BME280;11456;47.030;15.396;2023-04-27T07:03:33;97851.28;;;13.28;44.85
22580;BME280;11456;47.030;15.396;2023-04-27T07:05:59;97842.84;;;12.97;45.14
22580;BME280;11456;47.030;15.396;2023-04-27T07:08:26;97852.34;;;13.09;44.08
22580;BME280;11456;47.030;15.396;2023-04-27T07:10:53;97846.16;;;12.82;46.45
22580;BME280;11456;47.030;15.396;2023-04-27T07:13:19;97845.88;;;13.28;46.26
22580;BME280;11456;47.030;15.396;2023-04-27T07:15:46;97843.78;;;13.13;45.53
22580;BME280;11456;47.030;15.396;2023-04-27T07:18:12;97840.31;;;13.45;42.39
22580;BME280;11456;47.030;15.396;2023-04-27T07:20:39;97841.97;;;13.22;41.33
22580;BME280;11456;47.030;15.396;2023-04-27T07:23:06;97837.97;;;13.58;40.79
22580;BME280;11456;47.030;15.396;2023-04-27T07:25:33;97842.91;;;13.71;40.43
22580;BME280;11456;47.030;15.396;2023-04-27T07:28:00;97841.31;;;12.94;40.18
22580;BME280;11456;47.030;15.396;2023-04-27T07:30:27;97838.00;;;14.15;41.52
22580;BME280;11456;47.030;15.396;2023-04-27T07:32:55;97838.16;;;15.09;41.49
22580;BME280;11456;47.030;15.396;2023-04-27T07:35:22;97822.56;;;15.42;38.43
22580;BME280;11456;47.030;15.396;2023-04-27T07:37:49;97824.47;;;16.10;35.85
22580;BME280;11456;47.030;15.396;2023-04-27T07:40:17;97817.78;;;16.88;37.45
22580;BME280;11456;47.030;15.396;2023-04-27T07:42:44;97818.97;;;16.85;36.79
22580;BME280;11456;47.030;15.396;2023-04-27T07:45:13;97829.97;;;17.42;35.86
22580;BME280;11456;47.030;15.396;2023-04-27T07:47:40;97827.78;;;17.16;38.16
22580;BME280;11456;47.030;15.396;2023-04-27T07:50:07;97826.56;;;16.60;33.22
22580;BME280;11456;47.030;15.396;2023-04-27T07:52:36;97831.19;;;16.52;34.60
22580;BME280;11456;47.030;15.396;2023-04-27T07:55:02;97832.59;;;16.48;35.15
22580;BME280;11456;47.030;15.396;2023-04-27T07:57:30;97830.91;;;15.33;38.14
22580;BME280;11456;47.030;15.396;2023-04-27T07:59:56;97825.03;;;15.52;35.44
22580;BME280;11456;47.030;15.396;2023-04-27T08:02:25;97828.72;;;15.67;35.25
22580;BME280;11456;47.030;15.396;2023-04-27T08:04:52;97831.16;;;14.84;36.87
22580;BME280;11456;47.030;15.396;2023-04-27T08:07:19;97832.06;;;15.07;36.35
22580;BME280;11456;47.030;15.396;2023-04-27T08:09:46;97833.69;;;16.01;36.18
22580;BME280;11456;47.030;15.396;2023-04-27T08:12:12;97830.53;;;15.97;35.24
22580;BME280;11456;47.030;15.396;2023-04-27T08:14:39;97829.06;;;17.35;35.10
22580;BME280;11456;47.030;15.396;2023-04-27T08:17:05;97826.03;;;17.09;33.74
22580;BME280;11456;47.030;15.396;2023-04-27T08:19:32;97827.47;;;16.53;36.14
22580;BME280;11456;47.030;15.396;2023-04-27T08:21:59;97828.00;;;15.73;34.84
22580;BME280;11456;47.030;15.396;2023-04-27T08:24:26;97828.75;;;14.89;36.13
22580;BME280;11456;47.030;15.396;2023-04-27T08:26:52;97823.88;;;15.54;35.43
22580;BME280;11456;47.030;15.396;2023-04-27T08:29:19;97814.16;;;16.43;35.57
22580;BME280;11456;47.030;15.396;2023-04-27T08:31:54;97823.72;;;17.99;35.27
22580;BME280;11456;47.030;15.396;2023-04-27T08:34:22;97820.72;;;18.92;34.79
22580;BME280;11456;47.030;15.396;2023-04-27T08:36:49;97821.66;;;18.01;32.66
22580;BME280;11456;47.030;15.396;2023-04-27T08:39:15;97819.97;;;18.00;32.36
22580;BME280;11456;47.030;15.396;2023-04-27T08:41:43;97825.97;;;17.38;33.20
22580;BME280;11456;47.030;15.396;2023-04-27T08:44:10;97825.44;;;15.94;35.28
22580;BME280;11456;47.030;15.396;2023-04-27T08:46:37;97819.78;;;16.56;35.76
22580;BME280;11456;47.030;15.396;2023-04-27T08:49:04;97826.75;;;16.73;34.83
22580;BME280;11456;47.030;15.396;2023-04-27T08:51:31;97809.63;;;15.75;35.92
22580;BME280;11456;47.030;15.396;2023-04-27T08:53:58;97805.00;;;16.73;35.81
22580;BME280;11456;47.030;15.396;2023-04-27T08:56:25;97806.75;;;17.25;33.77
22580;BME280;11456;47.030;15.396;2023-04-27T08:58:54;97803.94;;;17.04;35.46
22580;BME280;11456;47.030;15.396;2023-04-27T09:01:21;97803.41;;;17.44;34.48
22580;BME280;11456;47.030;15.396;2023-04-27T09:03:48;97796.16;;;17.66;34.23
22580;BME280;11456;47.030;15.396;2023-04-27T09:06:15;97787.13;;;18.08;33.08
22580;BME280;11456;47.030;15.396;2023-04-27T09:08:46;97794.69;;;16.83;34.57
22580;BME280;11456;47.030;15.396;2023-04-27T09:11:13;97795.56;;;16.69;35.05
22580;BME280;11456;47.030;15.396;2023-04-27T09:13:41;97798.50;;;17.54;34.80
22580;BME280;11456;47.030;15.396;2023-04-27T09:16:13;97795.69;;;16.53;36.24
22580;BME280;11456;47.030;15.396;2023-04-27T09:18:41;97790.28;;;15.78;37.35
22580;BME280;11456;47.030;15.396;2023-04-27T09:21:08;97794.03;;;15.46;37.88
22580;BME280;11456;47.030;15.396;2023-04-27T09:23:35;97799.00;;;15.88;38.34
22580;BME280;11456;47.030;15.396;2023-04-27T09:26:03;97790.66;;;16.65;35.44
22580;BME280;11456;47.030;15.396;2023-04-27T09:28:33;97792.75;;;16.40;36.10
22580;BME280;11456;47.030;15.396;2023-04-27T09:31:01;97788.75;;;15.98;38.84
22580;BME280;11456;47.030;15.396;2023-04-27T09:33:29;97794.66;;;16.54;37.22
22580;BME280;11456;47.030;15.396;2023-04-27T09:35:57;97782.31;;;16.66;36.81
22580;BME280;11456;47.030;15.396;2023-04-27T09:38:23;97778.34;;;16.54;35.73
22580;BME280;11456;47.030;15.396;2023-04-27T09:40:51;97776.44;;;17.28;35.35
22580;BME280;11456;47.030;15.396;2023-04-27T09:43:17;97770.91;;;17.21;35.77
22580;BME280;11456;47.030;15.396;2023-04-27T09:45:44;97785.78;;;17.40;36.53
22580;BME280;11456;47.030;15.396;2023-04-27T09:48:11;97767.63;;;17.83;35.10
22580;BME280;11456;47.030;15.396;2023-04-27T09:50:39;97774.41;;;17.37;36.16
22580;BME280;11456;47.030;15.396;2023-04-27T09:53:13;97765.75;;;17.84;35.71
22580;BME280;11456;47.030;15.396;2023-04-27T09:55:43;97763.38;;;16.88;36.02
22580;BME280;11456;47.030;15.396;2023-04-27T10:00:57;97768.53;;;16.16;37.59
22580;BME280;11456;47.030;15.396;2023-04-27T10:03:29;97761.53;;;16.07;38.53
22580;BME280;11456;47.030;15.396;2023-04-27T10:08:46;97760.53;;;18.10;38.54
22580;BME280;11456;47.030;15.396;2023-04-27T10:11:13;97750.44;;;19.61;33.33
22580;BME280;11456;47.030;15.396;2023-04-27T10:13:49;97758.41;;;19.50;32.63
22580;BME280;11456;47.030;15.396;2023-04-27T10:16:19;97754.69;;;19.77;32.01
22580;BME280;11456;47.030;15.396;2023-04-27T10:18:53;97752.75;;;19.51;33.01
22580;BME280;11456;47.030;15.396;2023-04-27T10:21:20;97744.09;;;20.93;30.40
22580;BME280;11456;47.030;15.396;2023-04-27T10:23:47;97743.06;;;21.38;33.84
22580;BME280;11456;47.030;15.396;2023-04-27T10:26:22;97741.66;;;20.19;33.85
22580;BME280;11456;47.030;15.396;2023-04-27T10:28:56;97739.72;;;21.36;32.02
22580;BME280;11456;47.030;15.396;2023-04-27T10:31:26;97740.47;;;18.18;33.89
22580;BME280;11456;47.030;15.396;2023-04-27T10:34:03;97735.16;;;20.33;31.75
22580;BME280;11456;47.030;15.396;2023-04-27T10:36:33;97736.16;;;19.66;31.95
22580;BME280;11456;47.030;15.396;2023-04-27T10:39:02;97729.91;;;20.38;30.51
22580;BME280;11456;47.030;15.396;2023-04-27T10:41:34;97734.88;;;19.55;31.38
22580;BME280;11456;47.030;15.396;2023-04-27T10:44:17;97726.31;;;19.65;32.59
22580;BME280;11456;47.030;15.396;2023-04-27T10:46:51;97734.91;;;19.75;32.34
22580;BME280;11456;47.030;15.396;2023-04-27T10:49:18;97736.81;;;17.83;36.97
22580;BME280;11456;47.030;15.396;2023-04-27T10:51:44;97724.91;;;18.74;34.99
22580;BME280;11456;47.030;15.396;2023-04-27T10:54:12;97718.53;;;19.88;33.46
22580;BME280;11456;47.030;15.396;2023-04-27T10:56:39;97733.84;;;18.33;34.39
22580;BME280;11456;47.030;15.396;2023-04-27T10:59:06;97714.28;;;19.53;35.46
22580;BME280;11456;47.030;15.396;2023-04-27T11:01:35;97715.44;;;17.86;37.80
22580;BME280;11456;47.030;15.396;2023-04-27T11:04:02;97707.84;;;19.06;37.52
22580;BME280;11456;47.030;15.396;2023-04-27T11:06:29;97710.28;;;20.61;36.34
22580;BME280;11456;47.030;15.396;2023-04-27T11:08:58;97705.91;;;19.81;35.32
22580;BME280;11456;47.030;15.396;2023-04-27T11:11:25;97713.28;;;21.04;30.90
22580;BME280;11456;47.030;15.396;2023-04-27T11:13:52;97708.16;;;21.27;32.23
22580;BME280;11456;47.030;15.396;2023-04-27T11:16:18;97709.88;;;20.31;31.63
22580;BME280;11456;47.030;15.396;2023-04-27T11:18:45;97713.06;;;19.75;33.68
22580;BME280;11456;47.030;15.396;2023-04-27T11:21:12;97710.53;;;19.80;33.82
22580;BME280;11456;47.030;15.396;2023-04-27T11:23:39;97719.66;;;18.72;33.22
22580;BME280;11456;47.030;15.396;2023-04-27T11:26:13;97703.16;;;18.25;33.91
22580;BME280;11456;47.030;15.396;2023-04-27T11:28:40;97708.47;;;18.61;34.39
22580;BME280;11456;47.030;15.396;2023-04-27T11:31:07;97700.19;;;18.20;34.43
22580;BME280;11456;47.030;15.396;2023-04-27T11:33:34;97705.38;;;17.23;37.00
22580;BME280;11456;47.030;15.396;2023-04-27T11:36:01;97704.25;;;17.75;36.47
22580;BME280;11456;47.030;15.396;2023-04-27T11:38:32;97706.25;;;17.45;37.03
22580;BME280;11456;47.030;15.396;2023-04-27T11:40:59;97693.16;;;16.98;36.48
22580;BME280;11456;47.030;15.396;2023-04-27T11:43:26;97703.97;;;17.48;35.88
22580;BME280;11456;47.030;15.396;2023-04-27T11:45:53;97709.69;;;17.53;35.73
22580;BME280;11456;47.030;15.396;2023-04-27T11:48:24;97708.25;;;17.36;35.57
22580;BME280;11456;47.030;15.396;2023-04-27T11:50:50;97702.09;;;16.92;36.29
22580;BME280;11456;47.030;15.396;2023-04-27T11:53:31;97705.69;;;16.19;37.39
22580;BME280;11456;47.030;15.396;2023-04-27T11:55:58;97707.09;;;16.44;38.31
22580;BME280;11456;47.030;15.396;2023-04-27T11:58:26;97700.13;;;15.97;38.16
22580;BME280;11456;47.030;15.396;2023-04-27T12:00:54;97707.94;;;16.44;36.91
22580;BME280;11456;47.030;15.396;2023-04-27T12:03:21;97708.78;;;16.16;37.24
22580;BME280;11456;47.030;15.396;2023-04-27T12:05:49;97708.78;;;16.16;37.90
22580;BME280;11456;47.030;15.396;2023-04-27T12:08:16;97708.22;;;16.06;38.45
22580;BME280;11456;47.030;15.396;2023-04-27T12:10:43;97713.03;;;15.95;38.90
22580;BME280;11456;47.030;15.396;2023-04-27T12:13:10;97710.94;;;16.06;39.64
22580;BME280;11456;47.030;15.396;2023-04-27T12:15:40;97706.13;;;15.93;40.02
22580;BME280;11456;47.030;15.396;2023-04-27T12:18:07;97706.63;;;16.11;39.46
22580;BME280;11456;47.030;15.396;2023-04-27T12:20:34;97699.75;;;15.86;41.07
22580;BME280;11456;47.030;15.396;2023-04-27T12:23:01;97694.31;;;16.89;38.03
22580;BME280;11456;47.030;15.396;2023-04-27T12:25:27;97694.22;;;18.03;36.35
22580;BME280;11456;47.030;15.396;2023-04-27T12:27:54;97688.16;;;17.80;36.53
22580;BME280;11456;47.030;15.396;2023-04-27T12:30:21;97695.25;;;18.64;35.68
22580;BME280;11456;47.030;15.396;2023-04-27T12:32:48;97689.84;;;18.36;36.19
22580;BME280;11456;47.030;15.396;2023-04-27T12:35:14;97691.72;;;18.70;35.33
22580;BME280;11456;47.030;15.396;2023-04-27T12:37:41;97684.22;;;18.86;35.14
22580;BME280;11456;47.030;15.396;2023-04-27T12:40:08;97682.31;;;18.45;37.32
22580;BME280;11456;47.030;15.396;2023-04-27T12:42:35;97681.69;;;18.84;36.50
22580;BME280;11456;47.030;15.396;2023-04-27T12:45:01;97686.31;;;17.87;35.72
22580;BME280;11456;47.030;15.396;2023-04-27T12:47:29;97684.47;;;18.50;35.31
22580;BME280;11456;47.030;15.396;2023-04-27T12:50:17;97678.31;;;18.82;35.15
22580;BME280;11456;47.030;15.396;2023-04-27T12:52:43;97677.25;;;19.44;33.48
22580;BME280;11456;47.030;15.396;2023-04-27T12:55:10;97678.56;;;18.46;34.81
22580;BME280;11456;47.030;15.396;2023-04-27T12:57:57;97678.16;;;19.51;35.73
22580;BME280;11456;47.030;15.396;2023-04-27T13:00:23;97681.72;;;19.97;35.29
22580;BME280;11456;47.030;15.396;2023-04-27T13:02:51;97675.63;;;19.63;33.27